createdAt,value
2022-12-19T00:01:29.076Z,58.39
2022-12-19T00:04:07.755Z,58.82
2022-12-19T00:06:37.434Z,58.68
2022-12-19T00:09:05.322Z,58.13
2022-12-19T00:11:33.549Z,56.78
2022-12-19T00:14:00.730Z,57.14
2022-12-19T00:16:29.865Z,57.62
2022-12-19T00:18:59.653Z,58.96
2022-12-19T00:21:34.853Z,59.29
2022-12-19T00:24:13.144Z,59.86
2022-12-19T00:26:48.141Z,59.44
2022-12-19T00:29:15.149Z,59.16
2022-12-19T00:31:44.436Z,59.21
2022-12-19T00:34:13.815Z,59.24
2022-12-19T00:36:40.698Z,59.15
2022-12-19T00:39:08.031Z,60.06
2022-12-19T00:41:37.462Z,59.31
2022-12-19T00:44:07.220Z,59.71
2022-12-19T00:46:35.395Z,59.55
2022-12-19T00:49:03.661Z,59.58
2022-12-19T00:51:32.722Z,58.85
2022-12-19T00:54:00.284Z,59.25
2022-12-19T00:56:37.792Z,58.80
2022-12-19T00:59:07.569Z,58.95
2022-12-19T01:01:37.993Z,58.71
2022-12-19T01:06:54.759Z,57.17
2022-12-19T01:09:33.122Z,56.64
2022-12-19T01:12:00.233Z,56.39
2022-12-19T01:14:27.326Z,57.18
2022-12-19T01:16:54.268Z,57.60
2022-12-19T01:19:21.190Z,56.37
2022-12-19T01:21:48.437Z,56.58
2022-12-19T01:24:18.932Z,56.48
2022-12-19T01:26:49.906Z,56.70
2022-12-19T01:29:16.844Z,57.15
2022-12-19T01:31:44.075Z,57.56
2022-12-19T01:34:11.036Z,56.74
2022-12-19T01:36:40.045Z,57.19
2022-12-19T01:39:07.989Z,57.25
2022-12-19T01:41:35.443Z,58.29
2022-12-19T01:44:08.206Z,57.79
2022-12-19T01:46:44.183Z,57.73
2022-12-19T01:49:34.249Z,58.19
2022-12-19T01:52:07.433Z,58.00
2022-12-19T01:54:40.934Z,58.16
2022-12-19T01:57:13.629Z,58.78
2022-12-19T01:59:50.190Z,58.23
2022-12-19T02:02:29.311Z,58.23
2022-12-19T02:04:56.348Z,57.44
2022-12-19T02:07:26.311Z,57.97
2022-12-19T02:09:57.392Z,57.06
2022-12-19T02:12:43.281Z,58.52
2022-12-19T02:15:14.715Z,58.35
2022-12-19T02:17:54.816Z,58.34
2022-12-19T02:20:59.229Z,59.27
2022-12-19T02:23:46.069Z,59.93
2022-12-19T02:26:43.028Z,59.69
2022-12-19T02:29:37.918Z,60.08
2022-12-19T02:32:15.817Z,60.00
2022-12-19T02:35:18.794Z,59.32
2022-12-19T02:37:59.790Z,59.42
2022-12-19T02:40:39.438Z,58.92
2022-12-19T02:43:10.596Z,59.69
2022-12-19T02:45:39.718Z,59.64
2022-12-19T02:48:09.220Z,59.58
2022-12-19T02:50:42.639Z,60.17
2022-12-19T02:53:13.816Z,60.70
2022-12-19T02:55:52.915Z,60.36
2022-12-19T02:58:38.274Z,60.51
2022-12-19T03:01:17.672Z,60.46
2022-12-19T03:03:52.082Z,60.39
2022-12-19T03:06:31.917Z,59.54
2022-12-19T03:09:12.029Z,59.27
2022-12-19T03:11:42.143Z,58.82
2022-12-19T03:14:18.426Z,59.40
2022-12-19T03:16:45.645Z,59.95
2022-12-19T03:19:14.764Z,58.73
2022-12-19T03:21:45.614Z,59.20
2022-12-19T03:24:14.438Z,59.25
2022-12-19T03:27:02.084Z,59.08
2022-12-19T03:29:38.564Z,59.56
2022-12-19T03:32:10.677Z,58.99
2022-12-19T03:34:47.357Z,58.75
2022-12-19T03:37:18.413Z,58.90
2022-12-19T03:39:49.638Z,59.85
2022-12-19T03:42:19.124Z,61.32
2022-12-19T03:44:49.724Z,61.04
2022-12-19T03:47:51.373Z,60.28
2022-12-19T03:50:18.812Z,60.20
2022-12-19T03:53:02.910Z,60.67
2022-12-19T03:55:38.592Z,60.04
2022-12-19T03:58:10.911Z,60.47
2022-12-19T04:00:43.740Z,60.85
2022-12-19T04:03:11.988Z,59.65
2022-12-19T04:05:41.524Z,60.73
2022-12-19T04:08:10.990Z,60.96
2022-12-19T04:11:01.770Z,60.97
2022-12-19T04:13:53.335Z,60.54
2022-12-19T04:16:23.246Z,60.69
2022-12-19T04:18:58.404Z,61.06
2022-12-19T04:21:35.602Z,60.83
2022-12-19T04:24:12.351Z,60.88
2022-12-19T04:26:42.268Z,60.90
2022-12-19T04:29:13.933Z,61.34
2022-12-19T04:31:41.452Z,61.67
2022-12-19T04:34:08.361Z,61.83
2022-12-19T04:36:35.287Z,61.00
2022-12-19T04:39:02.372Z,59.82
2022-12-19T04:41:29.420Z,58.75
2022-12-19T04:43:56.335Z,57.84
2022-12-19T04:46:23.240Z,58.20
2022-12-19T04:48:50.237Z,58.60
2022-12-19T04:51:17.301Z,58.13
2022-12-19T04:53:44.177Z,57.48
2022-12-19T04:56:11.189Z,57.70
2022-12-19T04:58:38.061Z,57.99
2022-12-19T05:01:06.761Z,59.22
2022-12-19T05:03:34.515Z,60.26
2022-12-19T05:06:10.329Z,61.22
2022-12-19T05:08:38.834Z,61.01
2022-12-19T05:11:07.371Z,61.40
2022-12-19T05:13:34.357Z,60.78
2022-12-19T05:16:07.417Z,59.76
2022-12-19T05:18:36.011Z,59.82
2022-12-19T05:21:02.972Z,61.02
2022-12-19T05:23:30.369Z,60.62
2022-12-19T05:26:02.429Z,61.65
2022-12-19T05:28:29.600Z,61.33
2022-12-19T05:31:08.502Z,61.18
2022-12-19T05:33:36.111Z,61.38
2022-12-19T05:36:04.337Z,61.45
2022-12-19T05:38:31.574Z,61.66
2022-12-19T05:40:58.707Z,61.20
2022-12-19T05:43:26.316Z,60.62
2022-12-19T05:45:53.230Z,61.17
2022-12-19T05:48:20.107Z,61.40
2022-12-19T05:50:49.001Z,61.91
2022-12-19T05:53:19.672Z,61.64
2022-12-19T05:55:50.470Z,61.66
2022-12-19T05:58:17.334Z,61.91
2022-12-19T06:00:44.306Z,62.29
2022-12-19T06:03:11.228Z,61.74
2022-12-19T06:05:38.365Z,60.57
2022-12-19T06:08:05.490Z,61.55
2022-12-19T06:10:32.421Z,61.39
2022-12-19T06:12:59.282Z,61.14
2022-12-19T06:15:26.445Z,60.97
2022-12-19T06:17:54.652Z,61.14
2022-12-19T06:20:21.770Z,61.74
2022-12-19T06:22:48.635Z,61.74
2022-12-19T06:25:15.616Z,61.16
2022-12-19T06:27:42.530Z,61.24
2022-12-19T06:30:09.944Z,61.34
2022-12-19T06:32:38.253Z,60.63
2022-12-19T06:35:06.078Z,61.39
2022-12-19T06:37:32.976Z,60.64
2022-12-19T06:39:59.924Z,60.65
2022-12-19T06:42:26.899Z,60.31
2022-12-19T06:44:56.300Z,60.10
2022-12-19T06:47:24.800Z,59.86
2022-12-19T06:49:51.919Z,59.63
2022-12-19T06:52:18.802Z,59.89
2022-12-19T06:54:45.830Z,59.83
2022-12-19T06:57:12.746Z,59.41
2022-12-19T06:59:39.846Z,59.07
2022-12-19T07:02:16.144Z,58.80
2022-12-19T07:04:49.683Z,58.42
2022-12-19T07:07:16.808Z,59.13
2022-12-19T07:09:43.754Z,59.57
2022-12-19T07:12:10.731Z,59.20
2022-12-19T07:14:37.774Z,58.77
2022-12-19T07:17:05.700Z,58.11
2022-12-19T07:19:34.954Z,58.32
2022-12-19T07:22:03.807Z,57.51
2022-12-19T07:24:31.070Z,57.18
2022-12-19T07:26:58.515Z,57.47
2022-12-19T07:29:25.397Z,57.50
2022-12-19T07:31:52.656Z,57.69
2022-12-19T07:34:19.558Z,57.44
2022-12-19T07:36:46.544Z,57.15
2022-12-19T07:39:13.440Z,57.01
2022-12-19T07:41:40.422Z,56.72
2022-12-19T07:44:07.598Z,55.91
2022-12-19T07:46:35.356Z,55.06
2022-12-19T07:49:02.322Z,56.04
2022-12-19T07:51:29.543Z,55.67
2022-12-19T07:53:56.492Z,55.86
2022-12-19T07:56:23.407Z,56.45
2022-12-19T07:58:50.840Z,56.34
2022-12-19T08:01:18.139Z,56.18
2022-12-19T08:03:45.167Z,56.91
2022-12-19T08:06:12.100Z,56.60
2022-12-19T08:08:38.935Z,55.97
2022-12-19T08:11:11.428Z,56.08
2022-12-19T08:13:46.016Z,55.83
2022-12-19T08:16:14.132Z,55.93
2022-12-19T08:18:41.275Z,55.67
2022-12-19T08:21:09.287Z,55.84
2022-12-19T08:23:36.731Z,55.16
2022-12-19T08:26:06.463Z,54.99
2022-12-19T08:28:34.796Z,55.57
2022-12-19T08:31:15.267Z,55.03
2022-12-19T08:33:42.389Z,54.56
2022-12-19T08:36:14.542Z,54.67
2022-12-19T08:38:42.138Z,54.43
2022-12-19T08:41:09.469Z,54.48
2022-12-19T08:43:36.520Z,54.98
2022-12-19T08:46:03.523Z,53.92
2022-12-19T08:48:32.374Z,53.23
2022-12-19T08:51:05.770Z,53.09
2022-12-19T08:53:36.443Z,53.83
2022-12-19T08:56:18.190Z,52.88
2022-12-19T08:58:45.774Z,52.32
2022-12-19T09:01:15.041Z,51.39
2022-12-19T09:05:14.005Z,50.98
2022-12-19T09:06:29.857Z,50.56
2022-12-19T09:09:00.521Z,50.37
2022-12-19T09:11:27.808Z,51.53
2022-12-19T09:13:56.721Z,51.12
2022-12-19T09:16:26.187Z,50.60
2022-12-19T09:18:55.535Z,50.88
2022-12-19T09:21:24.349Z,50.33
2022-12-19T09:24:00.540Z,50.45
2022-12-19T09:26:32.890Z,50.05
2022-12-19T09:29:00.780Z,50.43
2022-12-19T09:31:28.581Z,50.78
2022-12-19T09:33:55.638Z,50.34
2022-12-19T09:36:25.054Z,49.98
2022-12-19T09:38:56.617Z,48.92
2022-12-19T09:41:32.575Z,49.40
2022-12-19T09:44:36.762Z,48.86
2022-12-19T09:47:17.289Z,48.77
2022-12-19T09:49:47.461Z,48.36
2022-12-19T09:52:32.837Z,48.38
2022-12-19T09:55:16.778Z,49.14
2022-12-19T09:57:55.602Z,48.93
2022-12-19T10:00:23.256Z,48.55
2022-12-19T10:03:09.471Z,49.23
2022-12-19T10:06:03.240Z,48.26
2022-12-19T10:08:56.529Z,48.41
2022-12-19T10:12:42.259Z,48.28
2022-12-19T10:15:15.359Z,48.21
2022-12-19T10:18:16.517Z,48.14
2022-12-19T10:21:00.143Z,48.18
2022-12-19T10:23:30.841Z,47.63
2022-12-19T10:26:10.906Z,47.88
2022-12-19T10:28:38.176Z,48.06
2022-12-19T10:31:21.566Z,47.95
2022-12-19T10:34:17.582Z,48.34
2022-12-19T10:39:53.599Z,49.47
2022-12-19T10:42:32.777Z,50.07
2022-12-19T10:45:06.473Z,50.14
2022-12-19T10:47:33.396Z,50.10
2022-12-19T10:50:04.013Z,49.98
2022-12-19T10:53:05.019Z,51.02
2022-12-19T10:55:41.758Z,52.04
2022-12-19T10:58:35.736Z,52.11
2022-12-19T11:01:23.731Z,52.12
2022-12-19T11:04:23.617Z,51.85
2022-12-19T11:07:04.704Z,52.61
2022-12-19T11:09:36.234Z,52.05
2022-12-19T11:14:40.628Z,51.95
2022-12-19T11:19:49.146Z,50.87
2022-12-19T11:27:25.471Z,51.94
2022-12-19T11:29:31.262Z,51.28
2022-12-19T11:30:38.644Z,51.17
2022-12-19T11:30:46.252Z,52.22
2022-12-19T11:33:18.746Z,51.41
2022-12-19T11:35:49.280Z,50.95
2022-12-19T11:38:25.737Z,51.78
2022-12-19T11:40:57.601Z,51.72
2022-12-19T11:43:48.545Z,52.91
2022-12-19T11:46:25.210Z,52.42
2022-12-19T11:49:23.544Z,53.42
2022-12-19T11:52:04.054Z,53.85
2022-12-19T11:54:39.881Z,53.54
2022-12-19T11:57:11.420Z,54.28
2022-12-19T11:59:40.157Z,53.87
2022-12-19T12:02:15.919Z,55.13
2022-12-19T12:05:08.371Z,56.12
2022-12-19T12:07:55.542Z,55.58
2022-12-19T12:16:30.402Z,56.01
2022-12-19T12:25:05.391Z,56.65
2022-12-19T12:28:59.927Z,57.51
2022-12-19T12:31:16.046Z,56.53
2022-12-19T12:31:17.627Z,56.38
2022-12-19T12:31:42.404Z,57.65
2022-12-19T12:31:58.103Z,56.74
2022-12-19T12:35:30.459Z,57.70
2022-12-19T12:40:53.620Z,58.00
2022-12-19T12:43:44.173Z,56.77
2022-12-19T12:46:19.710Z,57.57
2022-12-19T12:48:54.765Z,57.69
2022-12-19T12:51:24.776Z,57.26
2022-12-19T12:53:59.834Z,57.09
2022-12-19T12:56:27.016Z,57.72
2022-12-19T12:58:56.979Z,58.52
2022-12-19T13:01:29.907Z,58.41
2022-12-19T13:04:02.200Z,58.09
2022-12-19T13:06:35.204Z,59.17
2022-12-19T13:09:16.859Z,59.19
2022-12-19T13:11:49.878Z,59.25
2022-12-19T13:14:35.034Z,61.29
2022-12-19T13:17:04.103Z,61.06
2022-12-19T13:19:33.656Z,61.80
2022-12-19T13:22:03.824Z,60.87
2022-12-19T13:24:42.417Z,61.76
2022-12-19T13:27:18.645Z,62.39
2022-12-19T13:30:00.750Z,62.98
2022-12-19T13:32:36.660Z,63.27
2022-12-19T13:36:20.223Z,63.63
2022-12-19T13:40:02.199Z,64.23
2022-12-19T13:41:26.978Z,63.67
2022-12-19T13:44:00.018Z,63.13
2022-12-19T13:46:39.150Z,63.54
2022-12-19T13:49:11.943Z,63.68
2022-12-19T13:51:52.280Z,63.09
2022-12-19T13:54:36.419Z,63.62
2022-12-19T13:57:08.026Z,63.27
2022-12-19T13:59:40.179Z,62.90
2022-12-19T14:02:31.286Z,63.68
2022-12-19T14:04:59.423Z,63.13
2022-12-19T14:07:42.100Z,63.41
2022-12-19T14:11:33.720Z,63.75
2022-12-19T14:13:57.388Z,64.22
2022-12-19T14:15:55.597Z,64.36
2022-12-19T14:18:42.362Z,64.00
2022-12-19T14:22:05.842Z,64.80
2022-12-19T14:24:10.196Z,63.53
2022-12-19T14:28:18.523Z,63.67
2022-12-19T14:30:28.033Z,63.84
2022-12-19T14:33:41.969Z,63.49
2022-12-19T14:36:10.602Z,63.40
2022-12-19T14:39:24.342Z,63.86
2022-12-19T14:41:27.816Z,65.57
2022-12-19T14:51:43.042Z,64.84
2022-12-19T14:54:07.204Z,64.97
2022-12-19T14:54:07.517Z,64.95
2022-12-19T14:54:34.137Z,65.79
2022-12-19T14:56:17.603Z,64.62
2022-12-19T14:58:55.604Z,64.98
2022-12-19T15:01:25.911Z,64.70
2022-12-19T15:04:49.245Z,64.83
2022-12-19T15:07:08.897Z,65.43
2022-12-19T15:11:02.797Z,64.87
2022-12-19T15:14:04.097Z,64.31
2022-12-19T15:15:57.393Z,64.11
2022-12-19T15:18:38.713Z,64.02
2022-12-19T15:21:11.721Z,64.02
2022-12-19T15:23:39.070Z,63.75
2022-12-19T15:26:12.488Z,63.85
2022-12-19T15:28:48.382Z,63.64
2022-12-19T15:31:40.422Z,63.62
2022-12-19T15:36:58.535Z,64.45
2022-12-19T15:39:25.933Z,64.06
2022-12-19T15:41:54.880Z,63.28
2022-12-19T15:44:40.974Z,63.23
2022-12-19T15:47:18.376Z,63.59
2022-12-19T15:49:46.072Z,62.86
2022-12-19T15:52:17.765Z,63.45
2022-12-19T15:54:48.885Z,63.17
2022-12-19T15:57:25.805Z,63.22
2022-12-19T15:59:53.061Z,63.54
2022-12-19T16:02:25.279Z,63.38
2022-12-19T16:04:58.334Z,63.94
2022-12-19T16:07:30.349Z,64.36
2022-12-19T16:09:57.332Z,64.16
2022-12-19T16:12:31.683Z,63.15
2022-12-19T16:15:00.847Z,64.02
2022-12-19T16:17:31.984Z,63.78
2022-12-19T16:19:59.175Z,64.01
2022-12-19T16:22:28.277Z,64.23
2022-12-19T16:25:10.224Z,64.11
2022-12-19T16:27:37.241Z,63.91
2022-12-19T16:30:19.155Z,64.71
2022-12-19T16:32:46.997Z,64.74
2022-12-19T16:35:23.893Z,64.08
2022-12-19T16:38:04.423Z,65.30
2022-12-19T16:40:31.391Z,64.61
2022-12-19T16:43:10.798Z,64.48
2022-12-19T16:45:38.511Z,64.43
2022-12-19T16:48:21.631Z,64.76
2022-12-19T16:50:49.472Z,64.35
2022-12-19T16:53:17.547Z,65.35
2022-12-19T16:55:47.421Z,65.70
2022-12-19T16:58:25.500Z,65.88
2022-12-19T17:00:54.271Z,65.63
2022-12-19T17:03:29.505Z,64.55
2022-12-19T17:05:56.683Z,64.59
2022-12-19T17:08:24.397Z,65.18
2022-12-19T17:10:53.590Z,64.38
2022-12-19T17:13:22.259Z,64.12
2022-12-19T17:15:56.274Z,64.15
2022-12-19T17:18:29.565Z,63.83
2022-12-19T17:20:57.788Z,64.56
2022-12-19T17:23:26.534Z,65.54
2022-12-19T17:25:53.469Z,64.68
2022-12-19T17:28:20.513Z,63.78
2022-12-19T17:30:56.996Z,64.31
2022-12-19T17:33:32.159Z,63.53
2022-12-19T17:36:03.064Z,63.24
2022-12-19T17:38:29.966Z,63.76
2022-12-19T17:40:57.301Z,64.04
2022-12-19T17:43:24.352Z,64.34
2022-12-19T17:45:52.487Z,63.71
2022-12-19T17:48:33.034Z,64.11
2022-12-19T17:51:00.287Z,63.31
2022-12-19T17:53:27.341Z,63.61
2022-12-19T17:55:54.686Z,63.44
2022-12-19T17:58:21.811Z,63.48
2022-12-19T18:00:50.136Z,63.88
2022-12-19T18:03:18.584Z,64.56
2022-12-19T18:05:45.637Z,65.33
2022-12-19T18:08:32.645Z,65.40
2022-12-19T18:11:03.643Z,65.00
2022-12-19T18:13:33.517Z,65.25
2022-12-19T18:16:02.791Z,64.17
2022-12-19T18:18:35.647Z,64.22
2022-12-19T18:21:03.380Z,64.57
2022-12-19T18:23:30.938Z,65.31
2022-12-19T18:26:01.949Z,64.87
2022-12-19T18:28:30.170Z,65.01
2022-12-19T18:31:19.905Z,64.87
2022-12-19T18:33:48.353Z,64.61
2022-12-19T18:36:19.568Z,64.91
2022-12-19T18:38:48.988Z,64.47
2022-12-19T18:41:17.342Z,65.51
2022-12-19T18:43:46.074Z,64.55
2022-12-19T18:46:28.403Z,65.84
2022-12-19T18:48:55.673Z,65.41
2022-12-19T18:51:24.341Z,65.53
2022-12-19T18:53:51.997Z,65.32
2022-12-19T18:56:19.192Z,65.28
2022-12-19T18:58:47.257Z,65.38
2022-12-19T19:01:17.739Z,65.36
2022-12-19T19:04:00.102Z,65.44
2022-12-19T19:06:32.943Z,65.24
2022-12-19T19:09:03.674Z,65.40
2022-12-19T19:14:39.995Z,66.13
2022-12-19T19:17:14.045Z,66.04
2022-12-19T19:19:41.062Z,65.94
2022-12-19T19:22:08.164Z,66.18
2022-12-19T19:24:36.088Z,66.24
2022-12-19T19:27:02.970Z,66.59
2022-12-19T19:29:30.107Z,66.29
2022-12-19T19:31:58.735Z,66.43
2022-12-19T19:34:35.063Z,65.90
2022-12-19T19:37:07.368Z,66.51
2022-12-19T19:39:36.126Z,66.90
2022-12-19T19:42:03.495Z,66.87
2022-12-19T19:44:30.947Z,66.45
2022-12-19T19:46:58.250Z,67.35
2022-12-19T19:49:25.340Z,67.30
2022-12-19T19:51:55.637Z,67.77
2022-12-19T19:54:29.301Z,67.56
2022-12-19T19:56:56.554Z,67.67
2022-12-19T19:59:23.526Z,68.26
2022-12-19T20:01:50.699Z,67.97
2022-12-19T20:04:17.756Z,68.75
2022-12-19T20:06:44.690Z,68.22
2022-12-19T20:09:11.995Z,68.09
2022-12-19T20:11:39.076Z,67.64
2022-12-19T20:14:06.336Z,67.14
2022-12-19T20:16:33.605Z,67.54
2022-12-19T20:19:00.909Z,67.16
2022-12-19T20:21:34.365Z,66.72
2022-12-19T20:24:01.314Z,67.24
2022-12-19T20:26:28.455Z,67.34
2022-12-19T20:28:55.477Z,67.46
2022-12-19T20:31:24.140Z,67.02
2022-12-19T20:33:58.738Z,67.41
2022-12-19T20:36:25.871Z,66.88
2022-12-19T20:38:52.894Z,66.61
2022-12-19T20:41:19.902Z,66.27
2022-12-19T20:43:47.137Z,65.87
2022-12-19T20:46:17.168Z,66.34
2022-12-19T20:48:45.673Z,66.37
2022-12-19T20:51:14.205Z,66.19
2022-12-19T20:53:41.667Z,65.64
2022-12-19T20:56:11.529Z,65.73
2022-12-19T20:58:46.375Z,66.08
2022-12-19T21:01:16.333Z,65.59
2022-12-19T21:03:44.931Z,65.27
2022-12-19T21:06:14.373Z,66.33
2022-12-19T21:08:42.267Z,65.30
2022-12-19T21:11:09.871Z,65.49
2022-12-19T21:13:38.013Z,65.14
2022-12-19T21:16:07.301Z,64.90
2022-12-19T21:18:36.328Z,63.88
2022-12-19T21:21:03.913Z,64.04
2022-12-19T21:23:31.020Z,63.98
2022-12-19T21:26:00.950Z,63.86
2022-12-19T21:28:28.630Z,64.13
2022-12-19T21:31:11.676Z,64.21
2022-12-19T21:33:38.658Z,63.89
2022-12-19T21:36:10.742Z,63.37
2022-12-19T21:38:38.318Z,63.18
2022-12-19T21:41:06.718Z,64.39
2022-12-19T21:43:34.619Z,63.71
2022-12-19T21:46:06.993Z,63.73
2022-12-19T21:48:39.935Z,63.77
2022-12-19T21:51:07.681Z,64.01
2022-12-19T21:53:36.239Z,63.37
2022-12-19T21:56:05.243Z,62.91
2022-12-19T21:58:32.138Z,63.41
2022-12-19T22:01:11.750Z,63.72
2022-12-19T22:03:41.719Z,63.26
2022-12-19T22:06:13.600Z,64.03
2022-12-19T22:08:40.698Z,63.57
2022-12-19T22:11:13.924Z,64.05
2022-12-19T22:13:41.456Z,63.53
2022-12-19T22:16:09.785Z,63.29
2022-12-19T22:18:37.729Z,63.54
2022-12-19T22:21:05.602Z,63.45
2022-12-19T22:23:33.010Z,64.04
2022-12-19T22:26:13.476Z,63.82
2022-12-19T22:28:43.893Z,63.97
2022-12-19T22:31:24.584Z,63.07
2022-12-19T22:33:54.133Z,63.49
2022-12-19T22:36:27.982Z,63.33
2022-12-19T22:38:57.566Z,63.70
2022-12-19T22:41:25.185Z,63.88
2022-12-19T22:43:52.836Z,63.48
2022-12-19T22:46:39.978Z,64.18
2022-12-19T22:49:08.674Z,64.64
2022-12-19T22:51:37.050Z,64.49
2022-12-19T22:54:05.122Z,64.69
2022-12-19T22:56:33.828Z,64.66
2022-12-19T22:59:06.726Z,65.10
2022-12-19T23:01:42.681Z,64.18
2022-12-19T23:04:13.428Z,64.10
2022-12-19T23:06:41.204Z,63.67
2022-12-19T23:09:11.575Z,64.02
2022-12-19T23:11:40.424Z,64.44
2022-12-19T23:14:09.744Z,63.70
2022-12-19T23:16:36.723Z,63.64
2022-12-19T23:19:05.077Z,64.51
2022-12-19T23:21:32.136Z,64.00
2022-12-19T23:23:59.038Z,64.69
2022-12-19T23:26:31.450Z,64.34
2022-12-19T23:29:13.538Z,65.61
2022-12-19T23:31:45.308Z,64.75
2022-12-19T23:34:13.460Z,65.07
2022-12-19T23:39:27.740Z,65.53
2022-12-19T23:41:54.707Z,65.29
2022-12-19T23:44:21.676Z,64.28
2022-12-19T23:46:48.646Z,64.61
2022-12-19T23:49:15.828Z,64.73
2022-12-19T23:51:42.801Z,64.80
2022-12-19T23:54:09.823Z,65.48
2022-12-19T23:56:36.918Z,65.42
2022-12-19T23:59:04.106Z,65.49
